Time;durP1;ratioP1;P1;durP2;ratioP2;P2;SDS_P1;SDS_P2;PMS_P1;PMS_P2;Temp;Humidity;BMP_temperature;BMP_pressure;BME280_temperature;BME280_humidity;BME280_pressure;Samples;Min_cycle;Max_cycle;Signal;HPM_P1;HPM_P2
2023/08/27 00:01:41;;;;;;;3.63;1.70;;;;;;;15.47;82.99;100131.31;4879385;29;20097;-65
2023/08/27 00:04:44;;;;;;;6.75;2.20;;;;;;;15.54;82.78;100136.97;4879400;29;20048;-65
2023/08/27 00:07:47;;;;;;;4.22;2.05;;;;;;;15.51;82.78;100095.88;4879693;29;20567;-65
2023/08/27 00:10:59;;;;;;;4.88;2.28;;;;;;;15.44;83.21;100089.38;4879370;29;20140;-65
2023/08/27 00:14:03;;;;;;;3.83;2.22;;;;;;;15.35;83.77;100085.72;4879037;29;20086;-65
2023/08/27 00:17:07;;;;;;;6.63;2.05;;;;;;;15.42;83.19;100091.31;4878381;29;20051;-64
2023/08/27 00:20:11;;;;;;;4.30;1.65;;;;;;;15.39;83.09;100110.00;4879444;29;20059;-65
2023/08/27 00:23:15;;;;;;;8.50;1.92;;;;;;;15.38;83.57;100113.63;4879196;29;20043;-65
2023/08/27 00:26:18;;;;;;;4.60;1.63;;;;;;;15.34;83.04;100109.53;4879127;29;20055;-65
2023/08/27 00:29:22;;;;;;;2.95;1.60;;;;;;;15.31;83.17;100104.50;4879035;29;20052;-65
2023/08/27 00:32:28;;;;;;;6.13;2.15;;;;;;;15.38;83.19;100091.66;4879288;29;20572;-65
2023/08/27 00:35:31;;;;;;;8.18;1.90;;;;;;;15.30;82.76;100103.66;4879041;29;20051;-65
2023/08/27 00:38:34;;;;;;;4.05;1.63;;;;;;;15.22;83.16;100119.25;4878280;29;20415;-65
2023/08/27 00:41:38;;;;;;;5.57;1.80;;;;;;;15.26;83.29;100109.31;4878887;29;20097;-64
2023/08/27 00:44:42;;;;;;;6.07;1.75;;;;;;;15.26;83.60;100082.97;4878120;29;20542;-64
2023/08/27 00:47:45;;;;;;;8.13;1.63;;;;;;;15.17;83.40;100075.78;4878886;29;20048;-64
2023/08/27 00:50:49;;;;;;;4.82;1.42;;;;;;;15.16;83.79;100090.75;4878872;29;20097;-64
2023/08/27 00:53:52;;;;;;;6.07;1.60;;;;;;;15.20;83.26;100107.16;4878837;29;20416;-64
2023/08/27 00:56:58;;;;;;;3.97;1.55;;;;;;;15.19;83.25;100116.84;4878030;29;20068;-64
2023/08/27 01:00:03;;;;;;;3.20;1.40;;;;;;;15.06;84.21;100126.63;4878054;29;20198;-64
2023/08/27 01:03:08;;;;;;;4.78;1.58;;;;;;;15.14;84.19;100133.97;4882509;29;20052;-64
2023/08/27 01:06:12;;;;;;;4.03;1.35;;;;;;;15.09;84.72;100100.06;4881671;29;20130;-64
2023/08/27 01:09:44;;;;;;;11.93;1.73;;;;;;;15.24;83.89;100114.69;4881657;29;20522;-64
2023/08/27 01:13:00;;;;;;;3.58;1.67;;;;;;;15.18;84.04;100122.22;4882165;29;20521;-65
2023/08/27 01:16:05;;;;;;;7.97;1.52;;;;;;;15.17;84.14;100117.91;4881423;29;20488;-64
2023/08/27 01:19:15;;;;;;;6.20;1.83;;;;;;;15.08;84.52;100109.75;4882311;29;20048;-64
2023/08/27 01:22:18;;;;;;;3.20;1.58;;;;;;;15.13;84.63;100119.13;4881421;29;20100;-64
2023/08/27 01:25:30;;;;;;;8.02;2.05;;;;;;;15.20;84.08;100126.41;4882177;29;20051;-64
2023/08/27 01:28:43;;;;;;;5.97;1.92;;;;;;;15.25;83.99;100104.97;4881924;29;20052;-64
2023/08/27 01:32:28;;;;;;;4.07;1.65;;;;;;;15.13;84.24;100090.16;4881206;29;20051;-64
2023/08/27 01:35:33;;;;;;;4.13;1.73;;;;;;;15.01;84.38;100090.13;4881226;29;20616;-64
2023/08/27 01:38:36;;;;;;;5.53;1.55;;;;;;;14.96;84.85;100089.66;4881130;29;20055;-64
2023/08/27 01:41:40;;;;;;;4.47;1.65;;;;;;;14.97;85.21;100074.72;4881884;29;20075;-64
2023/08/27 01:44:43;;;;;;;9.05;1.70;;;;;;;15.00;85.15;100072.69;4881834;29;20051;-64
2023/08/27 01:47:46;;;;;;;4.95;1.80;;;;;;;14.92;85.57;100059.25;4881805;29;20124;-64
2023/08/27 01:50:50;;;;;;;5.53;1.73;;;;;;;15.01;85.15;100061.19;4881740;29;20104;-64
2023/08/27 01:53:54;;;;;;;5.07;2.17;;;;;;;15.02;84.95;100041.78;4881703;29;20056;-64
2023/08/27 01:56:57;;;;;;;3.72;2.00;;;;;;;14.99;85.01;100047.28;4880800;29;20110;-64
2023/08/27 02:00:01;;;;;;;6.00;1.90;;;;;;;14.89;85.60;100046.34;4880714;29;20548;-64
2023/08/27 02:03:05;;;;;;;9.30;1.88;;;;;;;14.93;85.49;100047.75;4880962;29;20047;-64
2023/08/27 02:06:08;;;;;;;7.05;2.15;;;;;;;14.92;85.00;100038.19;4881603;29;20078;-64
2023/08/27 02:09:11;;;;;;;4.47;1.70;;;;;;;14.92;85.52;100061.06;4880647;29;20112;-64
2023/08/27 02:12:15;;;;;;;6.70;2.33;;;;;;;14.74;85.63;100055.41;4879127;29;20109;-64
2023/08/27 02:15:19;;;;;;;4.18;1.75;;;;;;;14.72;85.79;100059.97;4881305;29;20595;-64
2023/08/27 02:18:22;;;;;;;5.32;1.38;;;;;;;14.88;86.13;100065.72;4880558;29;20485;-64
2023/08/27 02:21:25;;;;;;;3.92;1.30;;;;;;;14.94;85.56;100077.59;4880313;29;20498;-64
2023/08/27 02:24:29;;;;;;;6.75;1.77;;;;;;;14.99;84.89;100078.88;4881153;29;20102;-64
2023/08/27 02:27:33;;;;;;;3.70;1.83;;;;;;;14.99;84.97;100057.81;4881107;29;20075;-64
2023/08/27 02:30:37;;;;;;;5.72;1.83;;;;;;;14.96;84.99;100047.53;4880370;29;20472;-64
2023/08/27 02:33:40;;;;;;;8.43;1.38;;;;;;;14.93;85.28;100033.78;4880181;29;20060;-64
2023/08/27 02:36:44;;;;;;;3.70;1.40;;;;;;;14.89;85.05;100033.19;4880861;29;20414;-64
2023/08/27 02:39:47;;;;;;;3.88;1.17;;;;;;;14.85;85.04;100032.56;4880018;29;20063;-63
2023/08/27 02:42:50;;;;;;;3.78;0.93;;;;;;;14.78;85.78;100043.72;4879971;29;20104;-64
2023/08/27 02:45:53;;;;;;;2.38;1.00;;;;;;;14.77;85.88;100060.44;4880694;29;20056;-64
2023/08/27 02:48:57;;;;;;;9.00;1.40;;;;;;;14.83;85.64;100054.72;4880734;29;20040;-64
2023/08/27 02:52:01;;;;;;;4.88;1.40;;;;;;;14.71;85.77;100055.66;4880647;29;20131;-64
2023/08/27 02:55:05;;;;;;;2.80;1.25;;;;;;;14.76;85.95;100062.25;4880617;29;20071;-64
2023/08/27 02:58:08;;;;;;;2.72;1.00;;;;;;;14.80;85.61;100062.84;4880015;29;20080;-64
2023/08/27 03:01:18;;;;;;;4.15;1.20;;;;;;;14.72;86.10;100066.06;4879548;29;20048;-64
2023/08/27 03:04:23;;;;;;;2.95;1.30;;;;;;;14.62;86.59;100076.47;4879744;29;20068;-64
2023/08/27 03:07:27;;;;;;;5.68;1.15;;;;;;;14.69;86.34;100078.63;4879654;29;20063;-64
2023/08/27 03:10:32;;;;;;;6.13;1.02;;;;;;;14.72;86.41;100075.78;4880608;29;20056;-64
2023/08/27 03:13:36;;;;;;;4.53;1.13;;;;;;;14.74;86.21;100079.09;4879193;29;20051;-64
2023/08/27 03:16:40;;;;;;;5.70;1.20;;;;;;;14.71;86.00;100076.69;4879609;29;20077;-64
2023/08/27 03:19:44;;;;;;;4.78;1.35;;;;;;;14.63;86.80;100061.50;4879420;29;20522;-64
2023/08/27 03:22:49;;;;;;;9.45;1.35;;;;;;;14.68;85.93;100054.13;4880105;29;20048;-64
2023/08/27 03:25:54;;;;;;;4.32;1.10;;;;;;;14.72;85.80;100052.91;4879441;29;20060;-64
2023/08/27 03:28:57;;;;;;;2.58;1.05;;;;;;;14.71;85.65;100042.50;4879206;29;20064;-64
2023/08/27 03:32:02;;;;;;;4.38;1.30;;;;;;;14.65;86.09;100044.66;4880198;29;20193;-64
2023/08/27 03:35:11;;;;;;;3.58;1.00;;;;;;;14.72;85.85;100023.13;4879304;29;20121;-64
2023/08/27 03:38:15;;;;;;;3.55;1.10;;;;;;;14.70;86.05;100030.31;4879124;29;20047;-64
2023/08/27 03:41:19;;;;;;;9.48;1.50;;;;;;;14.68;86.37;100026.94;4878951;29;20044;-64
2023/08/27 03:44:24;;;;;;;4.30;1.35;;;;;;;14.67;86.14;100030.53;4878968;29;20567;-64
2023/08/27 03:47:28;;;;;;;6.65;1.85;;;;;;;14.64;86.54;100024.56;4879659;29;20048;-64
2023/08/27 03:50:31;;;;;;;5.63;1.30;;;;;;;14.71;86.57;100029.34;4879812;29;20095;-64
2023/08/27 03:53:36;;;;;;;4.75;1.20;;;;;;;14.61;86.56;100021.31;4878812;29;20040;-64
2023/08/27 03:56:39;;;;;;;3.25;1.10;;;;;;;14.57;87.00;100015.44;4878998;29;20052;-64
2023/08/27 03:59:42;;;;;;;4.07;1.00;;;;;;;14.53;86.86;100011.41;4879720;29;20052;-64
2023/08/27 04:02:46;;;;;;;3.10;1.42;;;;;;;14.53;86.85;100007.94;4879426;29;20047;-64
2023/08/27 04:05:49;;;;;;;3.25;1.40;;;;;;;14.57;86.68;99999.66;4878577;29;20522;-64
2023/08/27 04:08:53;;;;;;;2.17;1.02;;;;;;;14.59;86.49;100004.81;4879386;29;20079;-64
2023/08/27 04:11:57;;;;;;;3.92;1.30;;;;;;;14.60;86.73;100009.97;4878281;29;20572;-64
2023/08/27 04:15:01;;;;;;;3.30;1.17;;;;;;;14.59;86.72;100018.81;4878399;29;20052;-64
2023/08/27 04:18:04;;;;;;;4.03;1.23;;;;;;;14.53;87.06;100021.09;4867780;29;20047;-64
2023/08/27 04:21:08;;;;;;;3.72;1.73;;;;;;;14.55;87.44;100012.13;4878315;29;20048;-64
2023/08/27 04:24:11;;;;;;;4.95;1.30;;;;;;;14.53;87.82;100002.66;4879412;29;20108;-64
2023/08/27 04:27:14;;;;;;;7.50;1.52;;;;;;;14.59;87.65;100010.91;4878303;29;20044;-64
2023/08/27 04:30:18;;;;;;;3.10;1.58;;;;;;;14.60;86.93;100004.69;4878240;29;20052;-64
2023/08/27 04:33:21;;;;;;;6.38;1.40;;;;;;;14.60;87.37;100003.88;4878293;29;20112;-64
2023/08/27 04:36:25;;;;;;;5.05;1.40;;;;;;;14.55;87.51;100004.22;4878368;29;20052;-64
2023/08/27 04:39:28;;;;;;;8.85;2.08;;;;;;;14.61;87.34;99995.88;4878192;29;20523;-64
2023/08/27 04:42:31;;;;;;;;;;;;;;;14.57;87.23;99998.84;4879304;29;20061;-63
2023/08/27 04:45:34;;;;;;;6.47;1.60;;;;;;;14.58;86.50;100006.63;4876565;29;20354;-63
2023/08/27 04:48:38;;;;;;;4.97;1.20;;;;;;;14.53;86.85;100006.13;4876798;29;20166;-64
2023/08/27 04:51:43;;;;;;;2.72;1.35;;;;;;;14.52;87.80;100001.84;4876777;29;20060;-64
2023/08/27 04:54:47;;;;;;;4.95;1.38;;;;;;;14.50;88.12;100008.97;4877655;29;20111;-63
2023/08/27 04:57:50;;;;;;;5.32;1.33;;;;;;;14.57;87.68;99999.66;4877306;29;20047;-64
2023/08/27 05:00:54;;;;;;;5.78;1.30;;;;;;;14.54;87.39;100005.16;4877650;29;20173;-64
2023/08/27 05:03:57;;;;;;;5.97;1.17;;;;;;;14.53;87.40;100021.91;4876913;29;20189;-64
2023/08/27 05:07:02;;;;;;;6.53;1.67;;;;;;;14.52;87.81;100020.25;4876914;29;20044;-63
2023/08/27 05:10:06;;;;;;;2.75;1.38;;;;;;;14.60;87.97;100014.38;4876222;29;20128;-63
2023/08/27 05:13:09;;;;;;;6.05;1.70;;;;;;;14.61;87.69;100013.41;4876178;29;20121;-63
2023/08/27 05:16:12;;;;;;;3.72;1.50;;;;;;;14.60;87.83;100020.47;4876461;29;20518;-64
2023/08/27 05:19:15;;;;;;;;;;;;;;;14.63;87.17;100022.88;4876649;29;20109;-64
2023/08/27 05:22:19;;;;;;;3.60;1.40;;;;;;;14.64;87.43;100026.34;4876301;29;19980;-64
2023/08/27 05:25:22;;;;;;;6.43;1.75;;;;;;;14.60;87.55;100014.38;4877159;29;20052;-63
2023/08/27 05:28:25;;;;;;;5.20;1.50;;;;;;;14.31;90.25;100016.59;4877181;29;20203;-73
2023/08/27 05:31:30;;;;;;;6.30;1.70;;;;;;;14.45;90.27;100016.34;4877188;29;20088;-73
2023/08/27 05:34:34;;;;;;;8.15;2.58;;;;;;;14.47;89.19;100003.94;4876669;29;20108;-75
2023/08/27 05:37:43;;;;;;;4.05;2.05;;;;;;;14.41;90.07;100012.28;4876071;29;20114;-75
2023/08/27 05:40:46;;;;;;;4.95;1.45;;;;;;;14.40;90.25;100008.00;4877066;29;20052;-75
2023/08/27 05:43:49;;;;;;;6.75;1.75;;;;;;;14.14;91.39;100002.94;4876070;29;20093;-74
2023/08/27 05:46:53;;;;;;;;;;;;;;;14.22;90.83;99991.81;4876923;29;20052;-74
2023/08/27 05:49:57;;;;;;;7.25;1.50;;;;;;;14.30;90.73;100002.59;4879372;29;19967;-74
2023/08/27 05:53:02;;;;;;;3.25;1.75;;;;;;;14.32;90.71;100015.63;4879138;29;20475;-74
2023/08/27 05:56:06;;;;;;;6.53;1.48;;;;;;;14.29;91.16;100014.06;4879240;29;20044;-71
2023/08/27 05:59:11;;;;;;;2.67;1.58;;;;;;;14.26;91.05;100006.41;4879838;29;20043;-74
2023/08/27 06:02:15;;;;;;;2.72;1.60;;;;;;;14.12;91.34;99996.94;4879032;29;20416;-71
2023/08/27 06:05:19;;;;;;;8.27;1.65;;;;;;;14.04;91.61;100007.22;4879909;29;20133;-72
2023/08/27 06:08:23;;;;;;;7.40;1.77;;;;;;;14.16;91.73;100001.00;4879837;29;20044;-73
2023/08/27 06:11:26;;;;;;;4.80;1.50;;;;;;;14.21;91.98;99994.56;4878738;29;20044;-72
2023/08/27 06:14:29;;;;;;;;;;;;;;;14.23;91.54;99984.75;4879441;29;20063;-69
2023/08/27 06:17:32;;;;;;;3.75;1.65;;;;;;;14.45;89.81;99989.22;4879032;29;19973;-64
2023/08/27 06:20:36;;;;;;;6.63;1.60;;;;;;;14.24;90.46;99991.72;4878855;29;20368;-64
2023/08/27 06:23:39;;;;;;;7.20;1.85;;;;;;;14.18;91.38;100009.63;4879813;29;20108;-65
2023/08/27 06:26:43;;;;;;;4.53;1.55;;;;;;;14.45;91.16;100026.88;4879138;29;20055;-62
2023/08/27 06:29:47;;;;;;;5.25;1.10;;;;;;;14.39;91.75;100022.94;4878881;29;20056;-64
2023/08/27 06:32:54;;;;;;;3.35;1.10;;;;;;;14.30;92.44;100031.53;4878946;29;20478;-64
2023/08/27 06:35:57;;;;;;;3.78;1.40;;;;;;;14.34;92.76;100032.13;4879173;29;20068;-64
2023/08/27 06:39:00;;;;;;;3.95;1.10;;;;;;;14.53;92.72;100015.81;4879720;29;20125;-64
2023/08/27 06:42:04;;;;;;;4.22;1.10;;;;;;;14.80;91.59;100010.19;4878739;29;20093;-64
2023/08/27 06:45:12;;;;;;;5.78;1.30;;;;;;;14.99;90.85;99999.91;4878692;29;20092;-64
2023/08/27 06:48:15;;;;;;;5.90;1.65;;;;;;;15.12;90.83;100005.03;4878808;29;20410;-64
2023/08/27 06:51:19;;;;;;;3.78;1.40;;;;;;;15.15;89.67;99986.34;4879158;29;20048;-63
2023/08/27 06:54:22;;;;;;;3.33;1.30;;;;;;;15.25;89.82;100004.88;4878451;29;20109;-64
2023/08/27 06:57:25;;;;;;;2.30;1.20;;;;;;;15.32;89.06;100001.66;4878432;29;20121;-64
2023/08/27 07:00:31;;;;;;;3.65;1.27;;;;;;;15.35;87.37;100005.84;4877903;29;20052;-64
2023/08/27 07:03:34;;;;;;;3.00;1.23;;;;;;;15.23;87.17;100006.81;4878380;29;20059;-64
2023/08/27 07:06:38;;;;;;;3.92;1.40;;;;;;;15.32;87.50;100011.38;4879052;29;20113;-64
2023/08/27 07:09:42;;;;;;;3.17;1.25;;;;;;;15.22;89.66;100015.66;4879367;29;20514;-64
2023/08/27 07:12:45;;;;;;;4.55;1.60;;;;;;;15.33;89.35;100005.13;4878628;29;20113;-64
2023/08/27 07:15:49;;;;;;;3.28;1.48;;;;;;;15.51;88.39;100006.28;4877446;29;20105;-64
2023/08/27 07:18:52;;;;;;;4.03;1.42;;;;;;;15.43;88.32;100013.94;4877857;29;20088;-63
2023/08/27 07:21:56;;;;;;;3.17;1.33;;;;;;;15.42;88.74;100011.47;4877502;29;20076;-63
2023/08/27 07:25:00;;;;;;;3.15;1.20;;;;;;;15.66;88.67;100021.78;4877535;29;20060;-63
2023/08/27 07:28:03;;;;;;;3.38;1.35;;;;;;;15.89;87.75;100018.16;4877315;29;20056;-64
2023/08/27 07:31:07;;;;;;;3.47;1.10;;;;;;;16.02;88.23;100036.44;4877942;29;20433;-64
2023/08/27 07:34:10;;;;;;;4.35;1.10;;;;;;;16.07;87.65;100034.25;4878621;29;20056;-64
2023/08/27 07:37:14;;;;;;;5.28;1.35;;;;;;;16.08;87.62;100051.75;4878608;29;20568;-69
2023/08/27 07:40:18;;;;;;;3.65;1.00;;;;;;;15.93;88.65;100053.84;4877547;29;20055;-82
2023/08/27 07:43:22;;;;;;;3.00;1.10;;;;;;;15.87;88.91;100049.06;4878295;29;20056;-77
2023/08/27 07:46:25;;;;;;;2.92;1.20;;;;;;;15.79;89.59;100036.53;4877438;29;20628;-77
2023/08/27 07:49:29;;;;;;;4.22;1.30;;;;;;;15.95;88.52;100030.84;4877392;29;20044;-77
2023/08/27 07:52:33;;;;;;;4.63;1.48;;;;;;;15.93;89.53;100016.94;4878526;29;20088;-78
2023/08/27 07:55:37;;;;;;;7.05;1.17;;;;;;;15.91;91.28;100033.84;4877669;29;20051;-67
2023/08/27 07:58:42;;;;;;;5.70;1.38;;;;;;;15.99;90.72;100024.34;4877578;29;20473;-65
2023/08/27 08:01:45;;;;;;;5.03;1.30;;;;;;;16.02;90.09;100021.44;4877974;29;20060;-66
2023/08/27 08:04:48;;;;;;;3.22;1.30;;;;;;;16.06;89.94;100029.09;4877139;29;20062;-65
2023/08/27 08:07:52;;;;;;;3.53;1.15;;;;;;;16.05;91.03;100025.63;4878468;29;20060;-65
2023/08/27 08:10:56;;;;;;;3.63;1.20;;;;;;;16.19;90.63;100032.38;4876435;29;20084;-68
2023/08/27 08:13:59;;;;;;;4.25;1.30;;;;;;;16.28;89.98;100034.25;4877574;29;20122;-68
2023/08/27 08:17:03;;;;;;;6.07;1.65;;;;;;;16.27;89.45;100033.44;4877594;29;20060;-65
2023/08/27 08:20:07;;;;;;;5.95;1.50;;;;;;;16.30;89.74;100040.22;4877819;29;20423;-65
2023/08/27 08:23:11;;;;;;;3.92;1.33;;;;;;;16.37;88.68;100041.41;4877647;29;20060;-66
2023/08/27 08:26:14;;;;;;;3.25;1.20;;;;;;;16.49;88.02;100050.91;4875870;29;20051;-67
2023/08/27 08:29:17;;;;;;;6.78;1.10;;;;;;;16.54;87.65;100036.50;4875764;29;20075;-67
2023/08/27 08:32:21;;;;;;;2.83;1.10;;;;;;;16.58;88.27;100030.81;4875481;29;20052;-67
2023/08/27 08:35:24;;;;;;;5.32;1.30;;;;;;;16.56;86.74;100029.28;4876904;29;20128;-74
2023/08/27 08:38:27;;;;;;;3.55;1.20;;;;;;;16.73;88.05;100031.31;4877367;29;20097;-70
2023/08/27 08:41:36;;;;;;;3.35;1.10;;;;;;;16.87;86.82;100036.25;4877504;29;20135;-69
2023/08/27 08:44:54;;;;;;;3.90;1.17;;;;;;;16.89;85.06;100031.69;4877324;29;20048;-69
2023/08/27 08:48:01;;;;;;;4.65;0.90;;;;;;;17.06;84.90;100032.03;4877460;29;20079;-70
2023/08/27 08:51:07;;;;;;;4.10;1.10;;;;;;;17.31;86.39;100025.44;4877382;29;20563;-69
2023/08/27 08:54:15;;;;;;;2.30;1.00;;;;;;;17.45;84.37;100027.69;4877865;29;20108;-70
2023/08/27 08:57:19;;;;;;;7.07;1.30;;;;;;;17.38;84.59;100024.75;4877103;29;20060;-69
2023/08/27 09:00:25;;;;;;;2.58;1.08;;;;;;;17.53;85.80;100014.63;4877221;29;20067;-70
2023/08/27 09:03:30;;;;;;;5.10;1.42;;;;;;;17.65;85.41;100016.19;4877420;29;20181;-70
2023/08/27 09:06:34;;;;;;;2.95;1.10;;;;;;;17.85;85.68;100014.41;4877402;29;20120;-70
2023/08/27 09:09:40;;;;;;;3.30;1.02;;;;;;;18.06;84.45;100008.09;4877523;29;20140;-70
2023/08/27 09:12:46;;;;;;;3.85;1.42;;;;;;;17.94;85.26;100011.91;4875879;29;20140;-70
2023/08/27 09:15:52;;;;;;;2.55;0.90;;;;;;;18.03;85.09;100011.06;4877404;29;20443;-69
2023/08/27 09:18:56;;;;;;;2.97;1.05;;;;;;;18.01;85.32;99999.78;4876348;29;20051;-72
2023/08/27 09:21:59;;;;;;;4.13;1.95;;;;;;;18.12;82.42;99996.97;4878031;29;20138;-68
2023/08/27 09:25:03;;;;;;;3.67;0.88;;;;;;;18.21;82.37;99982.88;4880348;29;20512;-71
2023/08/27 09:28:07;;;;;;;3.60;1.00;;;;;;;18.41;81.01;99982.84;4880547;29;20056;-70
2023/08/27 09:31:10;;;;;;;3.08;1.00;;;;;;;18.57;79.24;99994.50;4880501;29;20569;-70
2023/08/27 09:34:16;;;;;;;4.85;1.13;;;;;;;18.62;80.58;99987.94;4880770;29;20514;-71
2023/08/27 09:37:22;;;;;;;2.97;0.98;;;;;;;18.64;80.81;99988.63;4880869;29;20075;-84
2023/08/27 09:40:25;;;;;;;2.90;1.13;;;;;;;18.75;80.43;99986.66;4880476;29;20098;-72
2023/08/27 09:43:29;;;;;;;3.05;1.15;;;;;;;18.80;80.36;99986.22;4880419;29;20136;-74
2023/08/27 09:46:33;;;;;;;2.25;0.77;;;;;;;18.79;80.08;99977.47;4880598;29;20068;-70
2023/08/27 09:49:42;;;;;;;2.88;1.10;;;;;;;19.00;80.42;99979.03;4880639;29;20628;-70
2023/08/27 09:52:45;;;;;;;2.88;1.20;;;;;;;19.03;75.36;99968.13;4880371;29;20132;-69
2023/08/27 09:55:51;;;;;;;2.88;0.90;;;;;;;19.22;73.39;99959.22;4880421;29;20051;-68
2023/08/27 09:58:55;;;;;;;2.33;1.13;;;;;;;19.37;72.62;99948.91;4880671;29;20141;-69
2023/08/27 10:02:00;;;;;;;2.47;0.80;;;;;;;19.46;71.96;99945.38;4880251;29;20079;-69
2023/08/27 10:05:07;;;;;;;1.95;0.77;;;;;;;19.54;71.55;99945.44;4880537;29;20091;-69
2023/08/27 10:08:12;;;;;;;1.73;0.93;;;;;;;19.55;70.47;99940.97;4879797;29;20571;-70
2023/08/27 10:11:16;;;;;;;3.75;0.80;;;;;;;19.61;69.07;99945.69;4879977;29;20048;-75
2023/08/27 10:14:19;;;;;;;2.80;1.33;;;;;;;19.56;69.66;99946.16;4860931;29;20182;-70
2023/08/27 10:17:24;;;;;;;6.28;1.05;;;;;;;19.52;68.05;99927.03;4860505;29;20052;-66
2023/08/27 10:20:28;;;;;;;4.32;0.70;;;;;;;19.53;67.79;99927.88;4860472;29;20060;-70
2023/08/27 10:23:32;;;;;;;4.18;1.30;;;;;;;19.25;69.48;99927.94;4860717;29;20101;-69
2023/08/27 10:26:35;;;;;;;3.78;0.80;;;;;;;19.29;68.48;99937.25;4860275;29;20105;-70
2023/08/27 10:29:40;;;;;;;2.72;0.80;;;;;;;19.51;69.00;99935.97;4861017;29;20446;-69
2023/08/27 10:32:43;;;;;;;2.72;0.60;;;;;;;19.26;69.96;99944.69;4860170;29;20136;-69
2023/08/27 10:35:50;;;;;;;3.30;1.30;;;;;;;19.32;70.10;99940.59;4860724;29;20457;-69
2023/08/27 10:38:57;;;;;;;3.13;1.08;;;;;;;19.45;70.18;99923.31;4860681;29;20111;-69
2023/08/27 10:42:00;;;;;;;2.63;0.70;;;;;;;19.26;70.51;99931.44;4860452;29;20052;-69
2023/08/27 10:45:15;;;;;;;2.50;1.20;;;;;;;19.12;69.71;99935.44;4861054;29;20101;-70
2023/08/27 10:48:25;;;;;;;3.90;1.20;;;;;;;19.12;69.50;99934.63;4860726;29;20116;-68
2023/08/27 10:51:32;;;;;;;5.63;1.02;;;;;;;19.05;68.91;99937.03;4860571;29;20076;-69
2023/08/27 10:54:39;;;;;;;2.00;0.90;;;;;;;19.01;69.39;99943.59;4860876;29;20149;-69
2023/08/27 10:57:45;;;;;;;2.25;0.80;;;;;;;19.17;70.00;99937.63;4859561;29;20101;-69
2023/08/27 11:01:14;;;;;;;4.22;1.33;;;;;;;19.30;67.33;99935.44;4859824;29;20046;-68
2023/08/27 11:04:17;;;;;;;3.03;1.13;;;;;;;19.34;67.73;99938.66;4849572;29;20065;-69
2023/08/27 11:07:22;;;;;;;2.40;0.80;;;;;;;19.57;66.13;99941.66;4861762;29;20052;-69
2023/08/27 11:10:31;;;;;;;4.55;0.98;;;;;;;19.42;65.35;99939.53;4861915;29;20056;-68
2023/08/27 11:13:36;;;;;;;1.77;0.80;;;;;;;19.50;63.72;99944.09;4875360;29;20144;-68
2023/08/27 11:16:48;;;;;;;2.97;0.80;;;;;;;19.45;62.05;99954.31;4880240;29;20047;-69
2023/08/27 11:19:53;;;;;;;3.42;1.08;;;;;;;19.66;60.78;99957.53;4880253;29;20640;-69
2023/08/27 11:22:59;;;;;;;2.20;0.73;;;;;;;19.96;60.68;99955.44;4874383;29;20052;-70
2023/08/27 11:26:03;;;;;;;3.38;0.82;;;;;;;19.88;59.41;99956.22;4880326;29;20055;-69
2023/08/27 11:29:11;;;;;;;3.13;1.00;;;;;;;19.67;59.57;99967.16;4880032;29;20051;-69
2023/08/27 11:32:15;;;;;;;4.38;0.85;;;;;;;19.77;60.47;99967.06;4880062;29;20079;-69
2023/08/27 11:35:23;;;;;;;3.03;1.00;;;;;;;20.03;58.97;99959.13;4880201;29;20423;-69
2023/08/27 11:38:27;;;;;;;8.15;1.08;;;;;;;20.20;58.87;99955.63;4879881;29;20116;-69
2023/08/27 11:41:36;;;;;;;4.47;0.80;;;;;;;19.93;57.92;99958.41;4879002;29;20077;-69
2023/08/27 11:44:49;;;;;;;2.10;0.90;;;;;;;20.39;57.71;99940.47;4878601;29;20486;-70
2023/08/27 11:47:52;;;;;;;6.45;1.13;;;;;;;20.73;57.55;99934.34;4879608;29;20060;-69
2023/08/27 11:50:56;;;;;;;3.20;0.80;;;;;;;20.37;56.40;99942.44;4879732;29;20571;-69
2023/08/27 11:54:04;;;;;;;3.08;1.00;;;;;;;20.46;56.52;99938.00;4878986;29;20048;-70
2023/08/27 11:57:08;;;;;;;3.65;1.25;;;;;;;20.57;57.16;99935.91;4879363;29;20077;-71
2023/08/27 12:00:12;;;;;;;1.95;0.60;;;;;;;20.72;55.83;99930.03;4879365;29;20093;-67
2023/08/27 12:03:15;;;;;;;2.03;0.75;;;;;;;20.77;54.50;99917.06;4879422;29;20141;-65
2023/08/27 12:06:24;;;;;;;2.95;0.80;;;;;;;20.89;55.47;99918.44;4879250;29;20096;-65
2023/08/27 12:09:29;;;;;;;2.45;0.70;;;;;;;21.05;53.13;99921.13;4879321;29;20056;-66
2023/08/27 12:12:36;;;;;;;2.42;1.00;;;;;;;20.89;52.74;99926.41;4878908;29;20184;-64
2023/08/27 12:15:40;;;;;;;2.53;0.82;;;;;;;20.89;53.29;99916.63;4879244;29;20093;-68
2023/08/27 12:18:47;;;;;;;2.33;0.80;;;;;;;20.93;54.25;99914.50;4879355;29;20538;-70
2023/08/27 12:21:56;;;;;;;1.60;0.65;;;;;;;21.18;53.26;99910.03;4878846;29;20052;-68
2023/08/27 12:25:00;;;;;;;1.60;0.50;;;;;;;21.32;52.61;99900.59;4878787;29;20522;-68
2023/08/27 12:28:04;;;;;;;2.25;0.75;;;;;;;21.54;52.48;99884.03;4878319;29;20133;-69
2023/08/27 12:31:08;;;;;;;4.05;0.70;;;;;;;21.68;52.14;99885.16;4878494;29;20112;-67
2023/08/27 12:34:14;;;;;;;2.30;0.68;;;;;;;21.69;50.64;99886.81;4878750;29;20097;-68
2023/08/27 12:37:21;;;;;;;4.38;0.82;;;;;;;21.56;51.28;99892.66;4878656;29;20071;-68
2023/08/27 12:40:25;;;;;;;2.40;0.82;;;;;;;21.56;49.32;99903.28;4878776;29;20079;-68
2023/08/27 12:43:28;;;;;;;2.45;0.90;;;;;;;21.64;49.46;99907.78;4878695;29;20093;-68
2023/08/27 12:46:32;;;;;;;2.85;0.77;;;;;;;21.75;49.14;99904.78;4877342;29;20048;-68
2023/08/27 12:49:36;;;;;;;3.20;0.80;;;;;;;21.95;48.79;99901.75;4877722;29;20518;-67
2023/08/27 12:52:40;;;;;;;2.90;0.80;;;;;;;21.46;49.32;99907.13;4877158;29;20104;-67
2023/08/27 12:55:43;;;;;;;3.05;0.98;;;;;;;21.95;49.71;99891.09;4878935;29;20522;-65
2023/08/27 12:58:46;;;;;;;3.25;0.85;;;;;;;22.24;47.75;99894.09;4882548;29;20136;-66
2023/08/27 13:02:15;;;;;;;1.98;0.90;;;;;;;21.95;46.92;99886.66;4887009;29;20121;-67
2023/08/27 13:05:20;;;;;;;2.53;0.80;;;;;;;22.04;46.39;99895.44;4862670;29;20093;-66
2023/08/27 13:08:24;;;;;;;5.28;1.00;;;;;;;21.96;46.43;99885.63;4863546;29;20132;-67
2023/08/27 13:11:28;;;;;;;3.60;1.35;;;;;;;22.00;46.70;99883.47;4862615;29;20056;-66
2023/08/27 13:14:33;;;;;;;3.83;0.73;;;;;;;22.17;46.46;99892.25;4862027;29;20136;-66
2023/08/27 13:17:37;;;;;;;2.90;0.90;;;;;;;22.28;45.42;99876.75;4863422;29;20056;-68
2023/08/27 13:20:40;;;;;;;3.30;0.90;;;;;;;23.05;43.16;99883.25;4879904;29;20044;-68
2023/08/27 13:23:44;;;;;;;2.00;0.82;;;;;;;23.21;42.85;99862.63;4861902;29;20430;-67
2023/08/27 13:26:47;;;;;;;2.80;1.15;;;;;;;23.84;41.72;99852.59;4862356;29;20056;-68
2023/08/27 13:29:51;;;;;;;1.77;0.70;;;;;;;23.69;42.07;99875.78;4861537;29;20053;-67
2023/08/27 13:32:55;;;;;;;3.05;1.17;;;;;;;23.48;41.64;99871.06;4861890;29;20420;-67
2023/08/27 13:35:59;;;;;;;3.08;0.80;;;;;;;22.92;42.36;99884.63;4861876;29;20056;-68
2023/08/27 13:39:03;;;;;;;2.28;0.75;;;;;;;22.88;42.60;99887.81;4861816;29;20595;-68
2023/08/27 13:42:07;;;;;;;3.47;0.95;;;;;;;23.36;41.94;99896.53;4861722;29;20100;-67
2023/08/27 13:45:10;;;;;;;4.43;0.95;;;;;;;22.98;42.72;99886.63;4861415;29;20114;-69
2023/08/27 13:48:14;;;;;;;3.83;1.13;;;;;;;23.56;42.16;99892.38;4861542;29;20125;-69
2023/08/27 13:51:18;;;;;;;1.90;0.88;;;;;;;23.21;43.86;99904.47;4861677;29;20465;-69
2023/08/27 13:54:22;;;;;;;3.55;0.80;;;;;;;24.62;41.91;99905.69;4861705;29;20048;-70
2023/08/27 13:57:25;;;;;;;2.85;1.00;;;;;;;24.36;42.56;99904.28;4862235;29;20052;-69
2023/08/27 14:00:33;;;;;;;3.78;0.70;;;;;;;24.11;42.47;99901.06;4878126;29;20093;-69
2023/08/27 14:03:38;;;;;;;2.72;1.00;;;;;;;24.31;42.14;99886.16;4878579;29;20056;-69
2023/08/27 14:06:42;;;;;;;2.00;0.65;;;;;;;23.59;42.86;99885.84;4879011;29;20523;-69
2023/08/27 14:09:45;;;;;;;2.13;0.80;;;;;;;25.66;40.41;99887.44;4879243;29;20196;-69
2023/08/27 14:12:49;;;;;;;2.53;0.80;;;;;;;26.32;38.15;99889.75;4877173;29;20420;-69
2023/08/27 14:15:54;;;;;;;2.65;1.02;;;;;;;28.01;34.76;99879.81;4876955;29;20140;-69
2023/08/27 14:18:57;;;;;;;2.85;1.10;;;;;;;29.72;31.11;99872.97;4876492;29;20521;-69
2023/08/27 14:22:02;;;;;;;2.20;0.93;;;;;;;29.89;30.48;99863.28;4876941;29;20072;-70
2023/08/27 14:25:07;;;;;;;2.85;0.90;;;;;;;29.16;31.83;99874.66;4878851;29;20044;-70